sensor_id;sensor_type;location;lat;lon;timestamp;temperature;humidity
2391;DHT22;22957;50.824;4.360;2022-12-18T00:02:11;0.60;99.90
2391;DHT22;22957;50.824;4.360;2022-12-18T00:04:36;1.00;99.90
2391;DHT22;22957;50.824;4.360;2022-12-18T00:07:02;0.60;99.90
2391;DHT22;22957;50.824;4.360;2022-12-18T00:09:28;0.70;99.90
2391;DHT22;22957;50.824;4.360;2022-12-18T00:11:54;0.60;99.90
2391;DHT22;22957;50.824;4.360;2022-12-18T00:14:19;0.50;99.90
2391;DHT22;22957;50.824;4.360;2022-12-18T00:16:46;0.50;99.90
2391;DHT22;22957;50.824;4.360;2022-12-18T00:19:13;0.80;99.90
2391;DHT22;22957;50.824;4.360;2022-12-18T00:21:45;0.20;99.90
2391;DHT22;22957;50.824;4.360;2022-12-18T00:24:13;0.50;99.90
2391;DHT22;22957;50.824;4.360;2022-12-18T00:26:39;0.70;99.90
2391;DHT22;22957;50.824;4.360;2022-12-18T00:29:09;0.00;99.90
2391;DHT22;22957;50.824;4.360;2022-12-18T00:31:36;0.10;99.90
2391;DHT22;22957;50.824;4.360;2022-12-18T00:34:03;0.20;99.90
2391;DHT22;22957;50.824;4.360;2022-12-18T00:36:32;0.20;99.90
2391;DHT22;22957;50.824;4.360;2022-12-18T00:38:59;-0.10;99.90
2391;DHT22;22957;50.824;4.360;2022-12-18T00:41:26;0.30;99.90
2391;DHT22;22957;50.824;4.360;2022-12-18T00:44:13;0.00;99.90
2391;DHT22;22957;50.824;4.360;2022-12-18T00:46:40;0.30;99.90
2391;DHT22;22957;50.824;4.360;2022-12-18T00:49:06;0.10;99.90
2391;DHT22;22957;50.824;4.360;2022-12-18T00:51:32;0.00;99.90
2391;DHT22;22957;50.824;4.360;2022-12-18T00:53:57;0.10;99.90
2391;DHT22;22957;50.824;4.360;2022-12-18T00:56:24;-0.10;99.90
2391;DHT22;22957;50.824;4.360;2022-12-18T00:58:50;-0.30;99.90
2391;DHT22;22957;50.824;4.360;2022-12-18T01:01:16;-0.30;99.90
2391;DHT22;22957;50.824;4.360;2022-12-18T01:03:42;-0.10;99.90
2391;DHT22;22957;50.824;4.360;2022-12-18T01:06:22;-0.40;99.90
2391;DHT22;22957;50.824;4.360;2022-12-18T01:08:48;0.00;99.90
2391;DHT22;22957;50.824;4.360;2022-12-18T01:11:17;-0.10;99.90
2391;DHT22;22957;50.824;4.360;2022-12-18T01:13:44;0.10;99.90
2391;DHT22;22957;50.824;4.360;2022-12-18T01:16:15;-0.10;99.90
2391;DHT22;22957;50.824;4.360;2022-12-18T01:18:41;0.10;99.90
2391;DHT22;22957;50.824;4.360;2022-12-18T01:21:08;0.00;99.90
2391;DHT22;22957;50.824;4.360;2022-12-18T01:23:35;0.20;99.90
2391;DHT22;22957;50.824;4.360;2022-12-18T01:26:09;0.10;99.90
2391;DHT22;22957;50.824;4.360;2022-12-18T01:28:35;-0.30;99.90
2391;DHT22;22957;50.824;4.360;2022-12-18T01:31:11;-0.30;99.90
2391;DHT22;22957;50.824;4.360;2022-12-18T01:33:37;-0.50;99.90
2391;DHT22;22957;50.824;4.360;2022-12-18T01:36:03;-0.30;99.90
2391;DHT22;22957;50.824;4.360;2022-12-18T01:38:29;0.00;99.90
2391;DHT22;22957;50.824;4.360;2022-12-18T01:40:58;-0.30;99.90
2391;DHT22;22957;50.824;4.360;2022-12-18T01:43:44;-0.10;99.90
2391;DHT22;22957;50.824;4.360;2022-12-18T01:46:11;-0.20;99.90
2391;DHT22;22957;50.824;4.360;2022-12-18T01:48:39;-0.50;99.90
2391;DHT22;22957;50.824;4.360;2022-12-18T01:51:06;-0.20;99.90
2391;DHT22;22957;50.824;4.360;2022-12-18T01:53:33;0.10;99.90
2391;DHT22;22957;50.824;4.360;2022-12-18T01:55:59;-0.20;99.90
2391;DHT22;22957;50.824;4.360;2022-12-18T01:59:01;-0.20;99.90
2391;DHT22;22957;50.824;4.360;2022-12-18T02:01:29;0.10;99.90
2391;DHT22;22957;50.824;4.360;2022-12-18T02:03:55;0.20;99.90
2391;DHT22;22957;50.824;4.360;2022-12-18T02:06:29;-0.10;99.90
2391;DHT22;22957;50.824;4.360;2022-12-18T02:09:18;-0.10;99.90
2391;DHT22;22957;50.824;4.360;2022-12-18T02:11:59;-0.20;99.90
2391;DHT22;22957;50.824;4.360;2022-12-18T02:14:44;0.20;99.90
2391;DHT22;22957;50.824;4.360;2022-12-18T02:17:16;0.00;99.90
2391;DHT22;22957;50.824;4.360;2022-12-18T02:27:45;-0.20;99.90
2391;DHT22;22957;50.824;4.360;2022-12-18T02:30:13;-0.10;99.90
2391;DHT22;22957;50.824;4.360;2022-12-18T02:32:42;-0.20;99.90
2391;DHT22;22957;50.824;4.360;2022-12-18T02:35:16;0.10;99.90
2391;DHT22;22957;50.824;4.360;2022-12-18T02:37:46;0.20;99.90
2391;DHT22;22957;50.824;4.360;2022-12-18T02:40:13;-0.30;99.90
2391;DHT22;22957;50.824;4.360;2022-12-18T02:42:39;-0.20;99.90
2391;DHT22;22957;50.824;4.360;2022-12-18T02:45:05;0.20;99.90
2391;DHT22;22957;50.824;4.360;2022-12-18T02:47:38;0.10;99.90
2391;DHT22;22957;50.824;4.360;2022-12-18T02:58:26;-0.60;99.90
2391;DHT22;22957;50.824;4.360;2022-12-18T03:01:03;-0.50;99.90
2391;DHT22;22957;50.824;4.360;2022-12-18T03:03:40;-0.50;99.90
2391;DHT22;22957;50.824;4.360;2022-12-18T03:06:31;-0.80;99.90
2391;DHT22;22957;50.824;4.360;2022-12-18T03:09:14;-0.70;99.90
2391;DHT22;22957;50.824;4.360;2022-12-18T03:11:44;-1.50;99.90
2391;DHT22;22957;50.824;4.360;2022-12-18T03:14:32;-1.20;99.90
2391;DHT22;22957;50.824;4.360;2022-12-18T03:17:02;-2.00;99.90
2391;DHT22;22957;50.824;4.360;2022-12-18T03:19:29;-2.10;99.90
2391;DHT22;22957;50.824;4.360;2022-12-18T03:21:59;-2.30;99.90
2391;DHT22;22957;50.824;4.360;2022-12-18T03:24:28;-2.30;99.90
2391;DHT22;22957;50.824;4.360;2022-12-18T03:26:58;-2.20;99.90
2391;DHT22;22957;50.824;4.360;2022-12-18T03:32:10;-2.40;99.90
2391;DHT22;22957;50.824;4.360;2022-12-18T03:34:39;-2.40;99.90
2391;DHT22;22957;50.824;4.360;2022-12-18T03:37:06;-2.20;99.90
2391;DHT22;22957;50.824;4.360;2022-12-18T03:39:33;-2.10;99.90
2391;DHT22;22957;50.824;4.360;2022-12-18T03:42:27;-1.80;99.90
2391;DHT22;22957;50.824;4.360;2022-12-18T03:45:11;-2.00;99.90
2391;DHT22;22957;50.824;4.360;2022-12-18T03:50:18;-2.00;99.90
2391;DHT22;22957;50.824;4.360;2022-12-18T03:52:57;-1.80;99.90
2391;DHT22;22957;50.824;4.360;2022-12-18T03:55:25;-1.80;99.90
2391;DHT22;22957;50.824;4.360;2022-12-18T03:57:54;-1.90;99.90
2391;DHT22;22957;50.824;4.360;2022-12-18T04:00:21;-1.80;99.90
2391;DHT22;22957;50.824;4.360;2022-12-18T04:02:52;-1.90;99.90
2391;DHT22;22957;50.824;4.360;2022-12-18T04:05:19;-2.00;99.90
2391;DHT22;22957;50.824;4.360;2022-12-18T04:07:47;-2.00;99.90
2391;DHT22;22957;50.824;4.360;2022-12-18T04:10:15;-2.20;99.90
2391;DHT22;22957;50.824;4.360;2022-12-18T04:12:42;-2.00;99.90
2391;DHT22;22957;50.824;4.360;2022-12-18T04:15:09;-2.30;99.90
2391;DHT22;22957;50.824;4.360;2022-12-18T04:17:35;-1.70;99.90
2391;DHT22;22957;50.824;4.360;2022-12-18T04:20:01;-1.80;99.90
2391;DHT22;22957;50.824;4.360;2022-12-18T04:22:27;-2.00;99.90
2391;DHT22;22957;50.824;4.360;2022-12-18T04:24:53;-1.20;99.90
2391;DHT22;22957;50.824;4.360;2022-12-18T04:27:18;-0.50;99.90
2391;DHT22;22957;50.824;4.360;2022-12-18T04:29:47;-0.10;99.90
2391;DHT22;22957;50.824;4.360;2022-12-18T04:32:13;-0.50;99.90
2391;DHT22;22957;50.824;4.360;2022-12-18T04:34:39;-0.80;99.90
2391;DHT22;22957;50.824;4.360;2022-12-18T04:37:05;-0.60;99.90
2391;DHT22;22957;50.824;4.360;2022-12-18T04:39:31;0.20;99.90
2391;DHT22;22957;50.824;4.360;2022-12-18T04:42:00;-0.70;99.90
2391;DHT22;22957;50.824;4.360;2022-12-18T04:44:26;-1.40;99.90
2391;DHT22;22957;50.824;4.360;2022-12-18T04:46:52;-1.30;99.90
2391;DHT22;22957;50.824;4.360;2022-12-18T04:49:18;-0.30;99.90
2391;DHT22;22957;50.824;4.360;2022-12-18T04:51:44;0.10;99.90
2391;DHT22;22957;50.824;4.360;2022-12-18T04:54:10;0.20;99.90
2391;DHT22;22957;50.824;4.360;2022-12-18T04:56:36;-0.50;99.90
2391;DHT22;22957;50.824;4.360;2022-12-18T04:59:02;-1.60;99.90
2391;DHT22;22957;50.824;4.360;2022-12-18T05:01:27;-1.60;99.90
2391;DHT22;22957;50.824;4.360;2022-12-18T05:03:53;-1.60;99.90
2391;DHT22;22957;50.824;4.360;2022-12-18T05:06:19;-1.80;99.90
2391;DHT22;22957;50.824;4.360;2022-12-18T05:08:45;-1.80;99.90
2391;DHT22;22957;50.824;4.360;2022-12-18T05:11:13;-1.90;99.90
2391;DHT22;22957;50.824;4.360;2022-12-18T05:13:43;-1.90;99.90
2391;DHT22;22957;50.824;4.360;2022-12-18T05:16:09;-1.90;99.90
2391;DHT22;22957;50.824;4.360;2022-12-18T05:18:35;-1.70;99.90
2391;DHT22;22957;50.824;4.360;2022-12-18T05:21:02;-2.00;99.90
2391;DHT22;22957;50.824;4.360;2022-12-18T05:23:28;-1.90;99.90
2391;DHT22;22957;50.824;4.360;2022-12-18T05:25:59;-2.30;99.90
2391;DHT22;22957;50.824;4.360;2022-12-18T05:28:28;-2.60;99.90
2391;DHT22;22957;50.824;4.360;2022-12-18T05:30:58;-2.10;99.90
2391;DHT22;22957;50.824;4.360;2022-12-18T05:33:26;-1.70;99.90
2391;DHT22;22957;50.824;4.360;2022-12-18T05:35:57;-1.30;99.90
2391;DHT22;22957;50.824;4.360;2022-12-18T05:38:25;-1.50;99.90
2391;DHT22;22957;50.824;4.360;2022-12-18T05:40:52;-1.60;99.90
2391;DHT22;22957;50.824;4.360;2022-12-18T05:43:19;-1.40;99.90
2391;DHT22;22957;50.824;4.360;2022-12-18T05:45:45;-1.80;99.90
2391;DHT22;22957;50.824;4.360;2022-12-18T05:48:11;-2.20;99.90
2391;DHT22;22957;50.824;4.360;2022-12-18T05:50:38;-1.80;99.90
2391;DHT22;22957;50.824;4.360;2022-12-18T05:53:05;-1.90;99.90
2391;DHT22;22957;50.824;4.360;2022-12-18T05:55:38;-1.40;99.90
2391;DHT22;22957;50.824;4.360;2022-12-18T05:58:06;-1.10;99.90
2391;DHT22;22957;50.824;4.360;2022-12-18T06:00:34;-0.80;99.90
2391;DHT22;22957;50.824;4.360;2022-12-18T06:03:00;-0.30;99.90
2391;DHT22;22957;50.824;4.360;2022-12-18T06:05:26;-0.40;99.90
2391;DHT22;22957;50.824;4.360;2022-12-18T06:07:53;-0.30;99.90
2391;DHT22;22957;50.824;4.360;2022-12-18T06:10:19;-1.10;99.90
2391;DHT22;22957;50.824;4.360;2022-12-18T06:12:45;-1.20;99.90
2391;DHT22;22957;50.824;4.360;2022-12-18T06:15:11;-0.80;99.90
2391;DHT22;22957;50.824;4.360;2022-12-18T06:17:36;-0.70;99.90
2391;DHT22;22957;50.824;4.360;2022-12-18T06:20:04;-0.40;99.90
2391;DHT22;22957;50.824;4.360;2022-12-18T06:22:32;-0.40;99.90
2391;DHT22;22957;50.824;4.360;2022-12-18T06:24:58;-0.60;99.90
2391;DHT22;22957;50.824;4.360;2022-12-18T06:27:24;-0.50;99.90
2391;DHT22;22957;50.824;4.360;2022-12-18T06:29:50;-0.40;99.90
2391;DHT22;22957;50.824;4.360;2022-12-18T06:32:16;-0.90;99.90
2391;DHT22;22957;50.824;4.360;2022-12-18T06:34:42;-0.70;99.90
2391;DHT22;22957;50.824;4.360;2022-12-18T06:37:08;-0.60;99.90
2391;DHT22;22957;50.824;4.360;2022-12-18T06:39:34;-0.70;99.90
2391;DHT22;22957;50.824;4.360;2022-12-18T06:41:59;-0.80;99.90
2391;DHT22;22957;50.824;4.360;2022-12-18T06:44:25;-0.90;99.90
2391;DHT22;22957;50.824;4.360;2022-12-18T06:46:51;-1.00;99.90
2391;DHT22;22957;50.824;4.360;2022-12-18T06:49:17;-0.70;99.90
2391;DHT22;22957;50.824;4.360;2022-12-18T06:51:43;-0.80;99.90
2391;DHT22;22957;50.824;4.360;2022-12-18T06:54:16;-1.00;99.90
2391;DHT22;22957;50.824;4.360;2022-12-18T06:56:45;-0.90;99.90
2391;DHT22;22957;50.824;4.360;2022-12-18T06:59:12;-0.50;99.90
2391;DHT22;22957;50.824;4.360;2022-12-18T07:01:38;-0.90;99.90
2391;DHT22;22957;50.824;4.360;2022-12-18T07:04:04;-1.00;99.90
2391;DHT22;22957;50.824;4.360;2022-12-18T07:06:30;-0.90;99.90
2391;DHT22;22957;50.824;4.360;2022-12-18T07:08:56;-1.20;99.90
2391;DHT22;22957;50.824;4.360;2022-12-18T07:11:22;-1.20;99.90
2391;DHT22;22957;50.824;4.360;2022-12-18T07:13:48;-1.00;99.90
2391;DHT22;22957;50.824;4.360;2022-12-18T07:16:17;-0.90;99.90
2391;DHT22;22957;50.824;4.360;2022-12-18T07:18:44;-0.90;99.90
2391;DHT22;22957;50.824;4.360;2022-12-18T07:21:15;-1.10;99.90
2391;DHT22;22957;50.824;4.360;2022-12-18T07:23:41;-1.00;99.90
2391;DHT22;22957;50.824;4.360;2022-12-18T07:26:12;-1.10;99.90
2391;DHT22;22957;50.824;4.360;2022-12-18T07:28:39;-1.00;99.90
2391;DHT22;22957;50.824;4.360;2022-12-18T07:31:08;-1.20;99.90
2391;DHT22;22957;50.824;4.360;2022-12-18T07:33:35;-1.00;99.90
2391;DHT22;22957;50.824;4.360;2022-12-18T07:36:03;-0.80;99.90
2391;DHT22;22957;50.824;4.360;2022-12-18T07:38:30;-0.60;99.90
2391;DHT22;22957;50.824;4.360;2022-12-18T07:41:04;-0.40;99.90
2391;DHT22;22957;50.824;4.360;2022-12-18T07:43:31;-0.50;99.90
2391;DHT22;22957;50.824;4.360;2022-12-18T07:45:57;-0.80;99.90
2391;DHT22;22957;50.824;4.360;2022-12-18T07:48:23;-0.90;99.90
2391;DHT22;22957;50.824;4.360;2022-12-18T07:50:48;-1.10;99.90
2391;DHT22;22957;50.824;4.360;2022-12-18T07:53:14;-1.10;99.90
2391;DHT22;22957;50.824;4.360;2022-12-18T07:55:41;-1.20;99.90
2391;DHT22;22957;50.824;4.360;2022-12-18T07:58:08;-1.20;99.90
2391;DHT22;22957;50.824;4.360;2022-12-18T08:00:34;-1.40;99.90
2391;DHT22;22957;50.824;4.360;2022-12-18T08:03:01;-0.60;99.90
2391;DHT22;22957;50.824;4.360;2022-12-18T08:05:27;-1.10;99.90
2391;DHT22;22957;50.824;4.360;2022-12-18T08:07:53;-0.70;99.90
2391;DHT22;22957;50.824;4.360;2022-12-18T08:10:22;-0.70;99.90
2391;DHT22;22957;50.824;4.360;2022-12-18T08:12:50;-0.30;99.90
2391;DHT22;22957;50.824;4.360;2022-12-18T08:15:16;-0.70;99.90
2391;DHT22;22957;50.824;4.360;2022-12-18T08:17:42;-0.80;99.90
2391;DHT22;22957;50.824;4.360;2022-12-18T08:20:08;-0.60;99.90
2391;DHT22;22957;50.824;4.360;2022-12-18T08:22:36;-0.60;99.90
2391;DHT22;22957;50.824;4.360;2022-12-18T08:25:03;-0.40;99.90
2391;DHT22;22957;50.824;4.360;2022-12-18T08:27:30;0.00;99.90
2391;DHT22;22957;50.824;4.360;2022-12-18T08:30:08;-0.10;99.90
2391;DHT22;22957;50.824;4.360;2022-12-18T08:32:34;-0.10;99.90
2391;DHT22;22957;50.824;4.360;2022-12-18T08:35:00;-0.20;99.90
2391;DHT22;22957;50.824;4.360;2022-12-18T08:37:26;-0.30;99.90
2391;DHT22;22957;50.824;4.360;2022-12-18T08:39:52;0.20;99.90
2391;DHT22;22957;50.824;4.360;2022-12-18T08:42:18;0.50;99.90
2391;DHT22;22957;50.824;4.360;2022-12-18T08:45:02;0.40;99.90
2391;DHT22;22957;50.824;4.360;2022-12-18T08:47:28;0.60;99.90
2391;DHT22;22957;50.824;4.360;2022-12-18T08:49:54;0.40;99.90
2391;DHT22;22957;50.824;4.360;2022-12-18T08:52:20;0.60;99.90
2391;DHT22;22957;50.824;4.360;2022-12-18T08:54:46;0.80;99.90
2391;DHT22;22957;50.824;4.360;2022-12-18T08:57:12;0.70;99.90
2391;DHT22;22957;50.824;4.360;2022-12-18T08:59:38;0.70;99.90
2391;DHT22;22957;50.824;4.360;2022-12-18T09:02:03;1.00;99.90
2391;DHT22;22957;50.824;4.360;2022-12-18T09:04:29;1.10;99.90
2391;DHT22;22957;50.824;4.360;2022-12-18T09:06:56;0.60;99.90
2391;DHT22;22957;50.824;4.360;2022-12-18T09:09:24;1.00;99.90
2391;DHT22;22957;50.824;4.360;2022-12-18T09:11:50;1.10;99.90
2391;DHT22;22957;50.824;4.360;2022-12-18T09:14:20;1.00;99.90
2391;DHT22;22957;50.824;4.360;2022-12-18T09:17:03;1.20;99.90
2391;DHT22;22957;50.824;4.360;2022-12-18T09:19:30;1.00;99.90
2391;DHT22;22957;50.824;4.360;2022-12-18T09:21:57;0.80;99.90
2391;DHT22;22957;50.824;4.360;2022-12-18T09:24:23;0.90;99.90
2391;DHT22;22957;50.824;4.360;2022-12-18T09:26:53;1.50;99.90
2391;DHT22;22957;50.824;4.360;2022-12-18T09:29:20;0.90;99.90
2391;DHT22;22957;50.824;4.360;2022-12-18T09:31:47;1.70;99.90
2391;DHT22;22957;50.824;4.360;2022-12-18T09:34:12;1.80;99.90
2391;DHT22;22957;50.824;4.360;2022-12-18T09:36:39;2.00;99.90
2391;DHT22;22957;50.824;4.360;2022-12-18T09:39:06;1.20;99.90
2391;DHT22;22957;50.824;4.360;2022-12-18T09:44:11;1.30;99.90
2391;DHT22;22957;50.824;4.360;2022-12-18T09:46:44;1.40;99.90
2391;DHT22;22957;50.824;4.360;2022-12-18T09:49:14;1.70;99.90
2391;DHT22;22957;50.824;4.360;2022-12-18T09:51:55;1.70;99.90
2391;DHT22;22957;50.824;4.360;2022-12-18T09:54:34;1.60;99.90
2391;DHT22;22957;50.824;4.360;2022-12-18T09:57:02;1.20;99.90
2391;DHT22;22957;50.824;4.360;2022-12-18T09:59:36;1.50;99.90
2391;DHT22;22957;50.824;4.360;2022-12-18T10:02:26;1.50;99.90
2391;DHT22;22957;50.824;4.360;2022-12-18T10:05:02;1.80;99.90
2391;DHT22;22957;50.824;4.360;2022-12-18T10:10:53;1.80;99.90
2391;DHT22;22957;50.824;4.360;2022-12-18T10:13:46;2.30;99.90
2391;DHT22;22957;50.824;4.360;2022-12-18T10:16:26;2.60;99.90
2391;DHT22;22957;50.824;4.360;2022-12-18T10:19:33;2.40;99.90
2391;DHT22;22957;50.824;4.360;2022-12-18T10:27:42;2.50;99.90
2391;DHT22;22957;50.824;4.360;2022-12-18T10:30:14;2.50;99.90
2391;DHT22;22957;50.824;4.360;2022-12-18T10:32:41;2.70;99.90
2391;DHT22;22957;50.824;4.360;2022-12-18T10:38:01;2.50;99.90
2391;DHT22;22957;50.824;4.360;2022-12-18T10:43:33;3.40;99.90
2391;DHT22;22957;50.824;4.360;2022-12-18T10:48:55;3.40;99.90
2391;DHT22;22957;50.824;4.360;2022-12-18T10:51:35;3.60;99.90
2391;DHT22;22957;50.824;4.360;2022-12-18T10:54:22;3.50;99.90
2391;DHT22;22957;50.824;4.360;2022-12-18T10:56:48;4.10;99.90
2391;DHT22;22957;50.824;4.360;2022-12-18T10:59:28;4.60;99.90
2391;DHT22;22957;50.824;4.360;2022-12-18T11:02:34;4.80;99.90
2391;DHT22;22957;50.824;4.360;2022-12-18T11:05:33;4.90;99.90
2391;DHT22;22957;50.824;4.360;2022-12-18T11:08:04;4.70;99.90
2391;DHT22;22957;50.824;4.360;2022-12-18T11:10:38;4.50;99.90
2391;DHT22;22957;50.824;4.360;2022-12-18T11:13:22;4.80;99.90
2391;DHT22;22957;50.824;4.360;2022-12-18T11:16:20;4.80;99.90
2391;DHT22;22957;50.824;4.360;2022-12-18T11:18:47;5.00;99.90
2391;DHT22;22957;50.824;4.360;2022-12-18T11:21:17;5.00;99.90
2391;DHT22;22957;50.824;4.360;2022-12-18T11:24:01;4.60;99.90
2391;DHT22;22957;50.824;4.360;2022-12-18T11:26:35;4.60;99.90
2391;DHT22;22957;50.824;4.360;2022-12-18T11:29:15;4.70;99.90
2391;DHT22;22957;50.824;4.360;2022-12-18T11:31:43;4.90;99.90
2391;DHT22;22957;50.824;4.360;2022-12-18T11:34:38;4.70;99.90
2391;DHT22;22957;50.824;4.360;2022-12-18T11:37:12;4.20;99.90
2391;DHT22;22957;50.824;4.360;2022-12-18T11:39:46;4.30;99.90
2391;DHT22;22957;50.824;4.360;2022-12-18T11:42:45;4.70;99.90
2391;DHT22;22957;50.824;4.360;2022-12-18T11:45:24;4.50;99.90
2391;DHT22;22957;50.824;4.360;2022-12-18T11:48:34;4.50;99.90
2391;DHT22;22957;50.824;4.360;2022-12-18T11:51:26;4.60;99.90
2391;DHT22;22957;50.824;4.360;2022-12-18T11:53:55;4.50;99.90
2391;DHT22;22957;50.824;4.360;2022-12-18T12:01:37;5.40;99.90
2391;DHT22;22957;50.824;4.360;2022-12-18T12:13:07;4.80;99.90
2391;DHT22;22957;50.824;4.360;2022-12-18T12:16:11;5.20;99.90
2391;DHT22;22957;50.824;4.360;2022-12-18T12:21:43;5.20;99.90
2391;DHT22;22957;50.824;4.360;2022-12-18T12:24:27;5.00;99.90
2391;DHT22;22957;50.824;4.360;2022-12-18T12:38:13;5.80;99.90
2391;DHT22;22957;50.824;4.360;2022-12-18T12:41:09;5.90;99.90
2391;DHT22;22957;50.824;4.360;2022-12-18T12:44:08;5.70;99.90
2391;DHT22;22957;50.824;4.360;2022-12-18T12:46:39;5.90;99.90
2391;DHT22;22957;50.824;4.360;2022-12-18T12:49:30;6.20;99.90
2391;DHT22;22957;50.824;4.360;2022-12-18T12:52:04;5.60;99.90
2391;DHT22;22957;50.824;4.360;2022-12-18T12:54:32;4.70;99.90
2391;DHT22;22957;50.824;4.360;2022-12-18T12:57:19;4.80;99.90
2391;DHT22;22957;50.824;4.360;2022-12-18T13:05:38;5.10;99.90
2391;DHT22;22957;50.824;4.360;2022-12-18T13:08:09;5.10;99.90
2391;DHT22;22957;50.824;4.360;2022-12-18T13:10:39;5.50;99.90
2391;DHT22;22957;50.824;4.360;2022-12-18T13:13:29;5.80;99.90
2391;DHT22;22957;50.824;4.360;2022-12-18T13:16:19;5.70;99.90
2391;DHT22;22957;50.824;4.360;2022-12-18T13:18:53;5.30;99.90
2391;DHT22;22957;50.824;4.360;2022-12-18T13:21:32;4.90;99.90
2391;DHT22;22957;50.824;4.360;2022-12-18T13:24:32;5.20;99.90
2391;DHT22;22957;50.824;4.360;2022-12-18T13:26:58;5.40;99.90
2391;DHT22;22957;50.824;4.360;2022-12-18T13:29:44;5.20;99.90
2391;DHT22;22957;50.824;4.360;2022-12-18T13:32:23;4.90;99.90
2391;DHT22;22957;50.824;4.360;2022-12-18T13:35:11;4.90;99.90
2391;DHT22;22957;50.824;4.360;2022-12-18T13:37:42;4.90;99.90
2391;DHT22;22957;50.824;4.360;2022-12-18T13:45:49;4.80;99.90
2391;DHT22;22957;50.824;4.360;2022-12-18T13:48:25;5.70;99.90
2391;DHT22;22957;50.824;4.360;2022-12-18T13:51:15;5.20;99.90
2391;DHT22;22957;50.824;4.360;2022-12-18T13:54:01;5.10;99.90
2391;DHT22;22957;50.824;4.360;2022-12-18T13:57:33;5.20;99.90
2391;DHT22;22957;50.824;4.360;2022-12-18T14:00:14;5.20;99.90
2391;DHT22;22957;50.824;4.360;2022-12-18T14:02:46;5.10;99.90
2391;DHT22;22957;50.824;4.360;2022-12-18T14:05:27;4.90;99.90
2391;DHT22;22957;50.824;4.360;2022-12-18T14:07:55;5.10;99.90
2391;DHT22;22957;50.824;4.360;2022-12-18T14:10:32;4.70;99.90
2391;DHT22;22957;50.824;4.360;2022-12-18T14:13:08;5.00;99.90
2391;DHT22;22957;50.824;4.360;2022-12-18T14:15:56;5.00;99.90
2391;DHT22;22957;50.824;4.360;2022-12-18T14:18:41;5.20;99.90
2391;DHT22;22957;50.824;4.360;2022-12-18T14:21:28;5.10;99.90
2391;DHT22;22957;50.824;4.360;2022-12-18T14:24:33;4.70;99.90
2391;DHT22;22957;50.824;4.360;2022-12-18T14:27:25;4.50;99.90
2391;DHT22;22957;50.824;4.360;2022-12-18T14:29:53;4.70;99.90
2391;DHT22;22957;50.824;4.360;2022-12-18T14:32:20;4.90;99.90
2391;DHT22;22957;50.824;4.360;2022-12-18T14:34:57;4.60;99.90
2391;DHT22;22957;50.824;4.360;2022-12-18T14:37:32;4.80;99.90
2391;DHT22;22957;50.824;4.360;2022-12-18T14:40:11;5.10;99.90
2391;DHT22;22957;50.824;4.360;2022-12-18T14:42:42;4.80;99.90
2391;DHT22;22957;50.824;4.360;2022-12-18T14:48:05;4.60;99.90
2391;DHT22;22957;50.824;4.360;2022-12-18T14:50:34;4.70;99.90
2391;DHT22;22957;50.824;4.360;2022-12-18T14:53:21;4.40;99.90
2391;DHT22;22957;50.824;4.360;2022-12-18T14:55:52;4.50;99.90
2391;DHT22;22957;50.824;4.360;2022-12-18T14:58:26;4.50;99.90
2391;DHT22;22957;50.824;4.360;2022-12-18T15:00:55;4.60;99.90
2391;DHT22;22957;50.824;4.360;2022-12-18T15:03:25;4.80;99.90
2391;DHT22;22957;50.824;4.360;2022-12-18T15:05:52;4.10;99.90
2391;DHT22;22957;50.824;4.360;2022-12-18T15:08:36;4.30;99.90
2391;DHT22;22957;50.824;4.360;2022-12-18T15:11:25;4.20;99.90
2391;DHT22;22957;50.824;4.360;2022-12-18T15:13:51;4.70;99.90
2391;DHT22;22957;50.824;4.360;2022-12-18T15:16:21;4.30;99.90
2391;DHT22;22957;50.824;4.360;2022-12-18T15:18:47;4.60;99.90
2391;DHT22;22957;50.824;4.360;2022-12-18T15:21:19;4.40;99.90
2391;DHT22;22957;50.824;4.360;2022-12-18T15:23:53;4.60;99.90
2391;DHT22;22957;50.824;4.360;2022-12-18T15:26:21;4.70;99.90
2391;DHT22;22957;50.824;4.360;2022-12-18T15:31:29;4.80;99.90
2391;DHT22;22957;50.824;4.360;2022-12-18T15:34:18;4.70;99.90
2391;DHT22;22957;50.824;4.360;2022-12-18T15:36:46;4.10;99.90
2391;DHT22;22957;50.824;4.360;2022-12-18T15:39:15;4.10;99.90
2391;DHT22;22957;50.824;4.360;2022-12-18T15:41:41;4.30;99.90
2391;DHT22;22957;50.824;4.360;2022-12-18T15:44:28;5.00;99.90
2391;DHT22;22957;50.824;4.360;2022-12-18T15:46:57;4.60;99.90
2391;DHT22;22957;50.824;4.360;2022-12-18T15:49:23;4.50;99.90
2391;DHT22;22957;50.824;4.360;2022-12-18T15:51:57;4.50;99.90
2391;DHT22;22957;50.824;4.360;2022-12-18T15:54:27;4.40;99.90
2391;DHT22;22957;50.824;4.360;2022-12-18T15:57:12;4.50;99.90
2391;DHT22;22957;50.824;4.360;2022-12-18T16:00:11;4.80;99.90
2391;DHT22;22957;50.824;4.360;2022-12-18T16:02:39;4.60;99.90
2391;DHT22;22957;50.824;4.360;2022-12-18T16:05:15;4.60;99.90
2391;DHT22;22957;50.824;4.360;2022-12-18T16:07:43;4.50;99.90
2391;DHT22;22957;50.824;4.360;2022-12-18T16:10:17;4.50;99.90
2391;DHT22;22957;50.824;4.360;2022-12-18T16:12:43;4.70;99.90
2391;DHT22;22957;50.824;4.360;2022-12-18T16:15:13;4.50;99.90
2391;DHT22;22957;50.824;4.360;2022-12-18T16:17:43;4.30;99.90
2391;DHT22;22957;50.824;4.360;2022-12-18T16:22:42;4.70;99.90
2391;DHT22;22957;50.824;4.360;2022-12-18T16:25:34;4.40;99.90
2391;DHT22;22957;50.824;4.360;2022-12-18T16:28:02;4.70;99.90
2391;DHT22;22957;50.824;4.360;2022-12-18T16:30:30;4.90;99.90
2391;DHT22;22957;50.824;4.360;2022-12-18T16:32:58;4.80;99.90
2391;DHT22;22957;50.824;4.360;2022-12-18T16:35:25;4.60;99.90
2391;DHT22;22957;50.824;4.360;2022-12-18T16:37:51;4.80;99.90
2391;DHT22;22957;50.824;4.360;2022-12-18T16:40:18;4.70;99.90
2391;DHT22;22957;50.824;4.360;2022-12-18T16:42:45;4.70;99.90
2391;DHT22;22957;50.824;4.360;2022-12-18T16:45:17;4.80;99.90
2391;DHT22;22957;50.824;4.360;2022-12-18T16:47:45;4.60;99.90
2391;DHT22;22957;50.824;4.360;2022-12-18T16:50:11;4.70;99.90
2391;DHT22;22957;50.824;4.360;2022-12-18T16:52:37;4.40;99.90
2391;DHT22;22957;50.824;4.360;2022-12-18T16:55:05;4.80;99.90
2391;DHT22;22957;50.824;4.360;2022-12-18T16:57:33;4.80;99.90
2391;DHT22;22957;50.824;4.360;2022-12-18T16:59:59;4.90;99.90
2391;DHT22;22957;50.824;4.360;2022-12-18T17:02:26;4.70;99.90
2391;DHT22;22957;50.824;4.360;2022-12-18T17:04:55;4.80;99.90
2391;DHT22;22957;50.824;4.360;2022-12-18T17:07:30;4.70;99.90
2391;DHT22;22957;50.824;4.360;2022-12-18T17:09:57;5.00;99.90
2391;DHT22;22957;50.824;4.360;2022-12-18T17:12:23;5.20;99.90
2391;DHT22;22957;50.824;4.360;2022-12-18T17:14:50;5.20;99.90
2391;DHT22;22957;50.824;4.360;2022-12-18T17:17:18;5.00;99.90
2391;DHT22;22957;50.824;4.360;2022-12-18T17:19:44;4.60;99.90
2391;DHT22;22957;50.824;4.360;2022-12-18T17:22:10;5.00;99.90
2391;DHT22;22957;50.824;4.360;2022-12-18T17:24:38;5.00;99.90
2391;DHT22;22957;50.824;4.360;2022-12-18T17:27:05;4.60;99.90
2391;DHT22;22957;50.824;4.360;2022-12-18T17:29:41;4.70;99.90
2391;DHT22;22957;50.824;4.360;2022-12-18T17:32:07;4.80;99.90
2391;DHT22;22957;50.824;4.360;2022-12-18T17:34:34;4.90;99.90
2391;DHT22;22957;50.824;4.360;2022-12-18T17:37:02;4.60;99.90
2391;DHT22;22957;50.824;4.360;2022-12-18T17:44:57;4.80;99.90
2391;DHT22;22957;50.824;4.360;2022-12-18T18:21:49;4.30;99.90
2391;DHT22;22957;50.824;4.360;2022-12-18T18:24:56;4.30;99.90
2391;DHT22;22957;50.824;4.360;2022-12-18T18:27:31;4.20;99.90
2391;DHT22;22957;50.824;4.360;2022-12-18T18:30:02;4.50;99.90
2391;DHT22;22957;50.824;4.360;2022-12-18T18:32:43;4.10;99.90
2391;DHT22;22957;50.824;4.360;2022-12-18T18:35:40;4.20;99.90